createdAt,value
2023-05-01T00:01:01.384Z,17.57
2023-05-01T00:03:29.805Z,17.56
2023-05-01T00:06:03.479Z,17.50
2023-05-01T00:08:32.057Z,17.48
2023-05-01T00:11:05.126Z,17.48
2023-05-01T00:13:33.896Z,17.47
2023-05-01T00:16:09.097Z,17.46
2023-05-01T00:18:37.901Z,17.41
2023-05-01T00:21:07.145Z,17.38
2023-05-01T00:23:38.308Z,17.38
2023-05-01T00:26:07.930Z,17.40
2023-05-01T00:28:36.738Z,17.36
2023-05-01T00:31:06.994Z,17.30
2023-05-01T00:33:35.552Z,17.36
2023-05-01T00:36:04.038Z,17.37
2023-05-01T00:38:32.486Z,17.33
2023-05-01T00:41:01.115Z,17.32
2023-05-01T00:43:30.707Z,17.31
2023-05-01T00:45:59.376Z,17.32
2023-05-01T00:48:29.548Z,17.25
2023-05-01T00:51:00.186Z,17.23
2023-05-01T00:53:29.754Z,17.22
2023-05-01T00:55:59.441Z,17.22
2023-05-01T00:58:28.161Z,17.20
2023-05-01T01:00:58.642Z,17.25
2023-05-01T01:03:29.033Z,17.24
2023-05-01T01:06:06.373Z,17.24
2023-05-01T01:08:43.638Z,17.31
2023-05-01T01:11:23.781Z,17.32
2023-05-01T01:14:00.456Z,17.31
2023-05-01T01:16:35.217Z,17.30
2023-05-01T01:19:26.089Z,17.10
2023-05-01T01:22:03.816Z,17.28
2023-05-01T01:25:00.775Z,17.32
2023-05-01T01:28:07.535Z,17.42
2023-05-01T01:31:19.037Z,17.53
2023-05-01T01:34:07.236Z,17.46
2023-05-01T01:36:49.209Z,17.40
2023-05-01T01:39:31.702Z,17.41
2023-05-01T01:42:01.826Z,17.27
2023-05-01T01:44:35.727Z,17.13
2023-05-01T01:47:09.498Z,17.37
2023-05-01T01:49:46.069Z,17.30
2023-05-01T01:52:17.321Z,17.26
2023-05-01T01:54:53.472Z,17.18
2023-05-01T01:57:25.658Z,17.02
2023-05-01T01:59:56.777Z,17.05
2023-05-01T02:02:28.776Z,17.08
2023-05-01T02:04:59.692Z,17.14
2023-05-01T02:07:30.790Z,17.10
2023-05-01T02:10:00.732Z,17.13
2023-05-01T02:12:30.079Z,17.17
2023-05-01T02:15:01.232Z,17.15
2023-05-01T02:17:31.945Z,17.13
2023-05-01T02:20:05.328Z,17.19
2023-05-01T02:22:35.173Z,17.14
2023-05-01T02:25:05.852Z,17.11
2023-05-01T02:27:39.869Z,17.08
2023-05-01T02:30:10.246Z,17.03
2023-05-01T02:32:39.335Z,17.00
2023-05-01T02:35:10.598Z,17.05
2023-05-01T02:37:40.122Z,17.05
2023-05-01T02:40:11.579Z,17.00
2023-05-01T02:42:41.225Z,17.00
2023-05-01T02:45:17.119Z,16.85
2023-05-01T02:47:47.507Z,16.87
2023-05-01T02:50:18.498Z,16.86
2023-05-01T02:52:47.633Z,16.60
2023-05-01T02:55:17.799Z,16.50
2023-05-01T02:57:46.314Z,16.65
2023-05-01T03:00:15.784Z,16.81
2023-05-01T03:02:44.741Z,16.79
2023-05-01T03:05:13.856Z,16.79
2023-05-01T03:07:44.176Z,16.78
2023-05-01T03:10:14.002Z,16.78
2023-05-01T03:12:43.020Z,16.80
2023-05-01T03:15:13.582Z,16.72
2023-05-01T03:17:42.389Z,16.67
2023-05-01T03:20:12.766Z,16.49
2023-05-01T03:22:44.530Z,16.46
2023-05-01T03:25:15.387Z,16.59
2023-05-01T03:27:43.852Z,16.60
2023-05-01T03:30:13.488Z,16.56
2023-05-01T03:32:42.358Z,16.59
2023-05-01T03:35:11.349Z,16.66
2023-05-01T03:37:40.032Z,16.58
2023-05-01T03:40:14.049Z,16.44
2023-05-01T03:42:42.945Z,16.58
2023-05-01T03:45:12.592Z,16.46
2023-05-01T03:47:41.416Z,16.49
2023-05-01T03:50:11.613Z,16.46
2023-05-01T03:52:40.283Z,16.49
2023-05-01T03:55:11.600Z,16.54
2023-05-01T03:57:40.254Z,16.52
2023-05-01T04:00:12.147Z,16.46
2023-05-01T04:02:40.956Z,16.49
2023-05-01T04:05:11.206Z,16.59
2023-05-01T04:07:40.032Z,16.59
2023-05-01T04:10:11.991Z,16.59
2023-05-01T04:12:41.149Z,16.54
2023-05-01T04:15:11.482Z,16.53
2023-05-01T04:17:41.188Z,16.49
2023-05-01T04:20:11.237Z,16.49
2023-05-01T04:22:39.923Z,16.48
2023-05-01T04:25:11.874Z,16.45
2023-05-01T04:27:40.408Z,16.54
2023-05-01T04:30:11.097Z,16.52
2023-05-01T04:32:39.983Z,16.49
2023-05-01T04:35:12.663Z,16.43
2023-05-01T04:37:41.403Z,16.45
2023-05-01T04:40:14.378Z,16.59
2023-05-01T04:42:43.098Z,16.60
2023-05-01T04:45:13.240Z,16.65
2023-05-01T04:47:41.953Z,16.71
2023-05-01T04:50:12.213Z,16.73
2023-05-01T04:52:41.330Z,16.73
2023-05-01T04:55:12.938Z,16.77
2023-05-01T04:57:41.475Z,16.83
2023-05-01T05:00:11.862Z,16.88
2023-05-01T05:02:42.131Z,16.93
2023-05-01T05:05:11.520Z,17.02
2023-05-01T05:07:40.534Z,17.10
2023-05-01T05:10:12.410Z,17.13
2023-05-01T05:12:41.275Z,17.39
2023-05-01T05:15:11.814Z,17.72
2023-05-01T05:17:40.538Z,17.94
2023-05-01T05:20:11.140Z,17.87
2023-05-01T05:22:39.847Z,17.82
2023-05-01T05:25:11.749Z,18.02
2023-05-01T05:27:40.863Z,17.91
2023-05-01T05:30:11.797Z,17.83
2023-05-01T05:32:40.613Z,17.88
2023-05-01T05:35:11.194Z,17.86
2023-05-01T05:37:39.901Z,17.78
2023-05-01T05:40:12.589Z,17.82
2023-05-01T05:42:41.250Z,17.83
2023-05-01T05:45:11.956Z,17.80
2023-05-01T05:47:41.346Z,17.79
2023-05-01T05:50:11.747Z,17.90
2023-05-01T05:52:40.625Z,18.10
2023-05-01T05:55:11.694Z,18.21
2023-05-01T05:57:40.438Z,18.53
2023-05-01T06:00:10.966Z,18.61
2023-05-01T06:02:39.543Z,18.47
2023-05-01T06:05:10.797Z,18.24
2023-05-01T06:07:40.447Z,18.10
2023-05-01T06:10:12.351Z,18.05
2023-05-01T06:12:46.197Z,17.93
2023-05-01T06:15:18.112Z,18.00
2023-05-01T06:17:46.768Z,17.92
2023-05-01T06:20:15.331Z,17.88
2023-05-01T06:22:44.250Z,17.85
2023-05-01T06:25:15.199Z,17.88
2023-05-01T06:27:43.643Z,17.99
2023-05-01T06:30:14.686Z,18.05
2023-05-01T06:32:43.791Z,18.21
2023-05-01T06:35:12.305Z,18.30
2023-05-01T06:37:42.655Z,18.16
2023-05-01T06:40:13.928Z,18.17
2023-05-01T06:42:42.977Z,18.25
2023-05-01T06:45:11.968Z,18.31
2023-05-01T06:47:41.089Z,18.27
2023-05-01T06:50:11.958Z,18.40
2023-05-01T06:52:41.484Z,18.54
2023-05-01T06:55:12.562Z,18.24
2023-05-01T06:57:43.354Z,17.57
2023-05-01T07:00:14.055Z,17.54
2023-05-01T07:02:43.571Z,17.53
2023-05-01T07:05:12.728Z,17.60
2023-05-01T07:07:47.398Z,17.46
2023-05-01T07:10:19.288Z,16.86
2023-05-01T07:12:49.625Z,17.47
2023-05-01T07:15:18.925Z,16.70
2023-05-01T07:17:47.815Z,16.43
2023-05-01T07:20:17.527Z,16.48
2023-05-01T07:22:46.369Z,16.77
2023-05-01T07:25:15.097Z,16.43
2023-05-01T07:27:43.982Z,16.21
2023-05-01T07:30:15.096Z,15.95
2023-05-01T07:32:43.664Z,16.93
2023-05-01T07:35:12.443Z,16.33
2023-05-01T07:37:43.252Z,16.87
2023-05-01T07:40:13.496Z,16.80
2023-05-01T07:42:42.772Z,17.53
2023-05-01T07:45:14.183Z,17.69
2023-05-01T07:47:44.357Z,18.39
2023-05-01T07:50:17.206Z,18.64
2023-05-01T07:52:45.745Z,17.44
2023-05-01T07:55:14.305Z,17.80
2023-05-01T07:57:42.899Z,18.06
2023-05-01T08:00:15.248Z,17.62
2023-05-01T08:02:43.833Z,17.90
2023-05-01T08:05:12.339Z,17.75
2023-05-01T08:07:41.216Z,18.16
2023-05-01T08:10:11.190Z,18.00
2023-05-01T08:12:39.657Z,18.48
2023-05-01T08:15:10.482Z,19.23
2023-05-01T08:17:40.331Z,19.37
2023-05-01T08:20:11.245Z,18.36
2023-05-01T08:22:39.800Z,17.15
2023-05-01T08:25:09.990Z,17.53
2023-05-01T08:27:41.205Z,17.59
2023-05-01T08:30:10.842Z,17.24
2023-05-01T08:32:40.706Z,17.42
2023-05-01T08:35:09.976Z,17.77
2023-05-01T08:37:38.546Z,18.08
2023-05-01T08:40:11.695Z,17.92
2023-05-01T08:42:40.427Z,18.28
2023-05-01T08:45:11.967Z,17.48
2023-05-01T08:47:43.556Z,18.53
2023-05-01T08:50:14.462Z,19.17
2023-05-01T08:52:43.965Z,19.73
2023-05-01T08:55:16.144Z,18.95
2023-05-01T08:57:48.095Z,18.43
2023-05-01T09:00:21.184Z,18.89
2023-05-01T09:02:52.529Z,18.91
2023-05-01T09:05:22.492Z,18.66
2023-05-01T09:07:51.256Z,18.81
2023-05-01T09:10:21.095Z,18.99
2023-05-01T09:12:58.950Z,19.45
2023-05-01T09:15:28.753Z,19.65
2023-05-01T09:18:03.661Z,19.15
2023-05-01T09:20:33.620Z,19.76
2023-05-01T09:23:02.240Z,19.76
2023-05-01T09:25:31.694Z,19.84
2023-05-01T09:28:00.626Z,20.37
2023-05-01T09:30:35.135Z,20.68
2023-05-01T09:33:12.839Z,20.68
2023-05-01T09:35:53.281Z,20.59
2023-05-01T09:38:29.137Z,21.01
2023-05-01T09:41:06.687Z,19.62
2023-05-01T09:43:40.475Z,19.84
2023-05-01T09:46:12.718Z,19.76
2023-05-01T09:48:42.998Z,20.36
2023-05-01T09:51:27.397Z,20.64
2023-05-01T09:54:03.259Z,20.58
2023-05-01T09:56:34.540Z,20.97
2023-05-01T09:59:19.906Z,21.01
2023-05-01T10:01:50.694Z,21.12
2023-05-01T10:04:32.164Z,20.53
2023-05-01T10:07:12.545Z,20.74
2023-05-01T10:09:41.401Z,20.65
2023-05-01T10:12:10.108Z,19.97
2023-05-01T10:14:53.461Z,20.10
2023-05-01T10:17:22.430Z,20.34
2023-05-01T10:19:53.152Z,20.91
2023-05-01T10:22:23.182Z,20.65
2023-05-01T10:24:52.344Z,21.10
2023-05-01T10:27:24.851Z,21.01
2023-05-01T10:29:55.923Z,21.46
2023-05-01T10:32:25.283Z,21.71
2023-05-01T10:35:03.581Z,22.53
2023-05-01T10:37:39.760Z,22.49
2023-05-01T10:40:47.631Z,22.18
2023-05-01T10:43:26.003Z,22.47
2023-05-01T10:46:27.057Z,22.19
2023-05-01T10:48:57.416Z,21.49
2023-05-01T10:51:28.871Z,22.50
2023-05-01T10:54:25.681Z,22.47
2023-05-01T10:56:55.812Z,21.69
2023-05-01T10:59:24.298Z,22.18
2023-05-01T11:01:54.086Z,22.13
2023-05-01T11:04:51.539Z,21.93
2023-05-01T11:07:23.517Z,22.32
2023-05-01T11:09:55.636Z,22.16
2023-05-01T11:12:51.209Z,22.07
2023-05-01T11:15:31.303Z,22.14
2023-05-01T11:18:01.775Z,21.72
2023-05-01T11:20:52.244Z,21.42
2023-05-01T11:23:25.568Z,21.45
2023-05-01T11:26:06.353Z,21.89
2023-05-01T11:28:36.139Z,22.29
2023-05-01T11:31:05.039Z,22.41
2023-05-01T11:33:34.694Z,21.75
2023-05-01T11:36:05.089Z,22.26
2023-05-01T11:38:35.099Z,22.52
2023-05-01T11:41:06.147Z,22.25
2023-05-01T11:43:39.747Z,21.93
2023-05-01T11:46:09.576Z,22.28
2023-05-01T11:48:39.771Z,21.88
2023-05-01T11:51:15.544Z,21.89
2023-05-01T11:53:58.856Z,22.05
2023-05-01T11:56:27.870Z,22.40
2023-05-01T11:58:57.710Z,22.34
2023-05-01T12:01:36.274Z,22.00
2023-05-01T12:04:05.621Z,22.56
2023-05-01T12:06:40.954Z,21.94
2023-05-01T12:09:16.983Z,22.23
2023-05-01T12:11:46.579Z,22.67
2023-05-01T12:14:19.696Z,22.82
2023-05-01T12:16:48.629Z,22.55
2023-05-01T12:19:19.730Z,22.10
2023-05-01T12:21:50.439Z,21.80
2023-05-01T12:24:21.403Z,21.31
2023-05-01T12:27:03.730Z,21.08
2023-05-01T12:29:41.453Z,21.23
2023-05-01T12:32:11.105Z,21.30
2023-05-01T12:34:42.088Z,21.04
2023-05-01T12:37:12.423Z,21.41
2023-05-01T12:39:45.936Z,21.69
2023-05-01T12:42:15.649Z,22.19
2023-05-01T12:44:45.335Z,22.48
2023-05-01T12:47:14.709Z,21.75
2023-05-01T12:49:43.564Z,22.17
2023-05-01T12:52:12.716Z,22.31
2023-05-01T12:54:45.806Z,21.85
2023-05-01T12:57:16.103Z,21.92
2023-05-01T12:59:46.385Z,22.05
2023-05-01T13:02:18.984Z,21.54
2023-05-01T13:04:49.314Z,21.95
2023-05-01T13:07:20.209Z,20.63
2023-05-01T13:09:59.393Z,20.67
2023-05-01T13:12:29.719Z,20.82
2023-05-01T13:14:59.519Z,21.00
2023-05-01T13:17:30.331Z,20.92
2023-05-01T13:20:01.512Z,20.87
2023-05-01T13:22:36.019Z,20.76
2023-05-01T13:25:17.580Z,20.76
2023-05-01T13:27:51.353Z,20.64
2023-05-01T13:30:22.881Z,20.99
2023-05-01T13:32:51.393Z,20.80
2023-05-01T13:35:25.616Z,19.84
2023-05-01T13:37:55.728Z,19.66
2023-05-01T13:40:28.964Z,19.57
2023-05-01T13:42:57.711Z,19.20
2023-05-01T13:45:27.562Z,19.58
2023-05-01T13:47:57.021Z,18.99
2023-05-01T13:50:25.793Z,19.49
2023-05-01T13:52:54.657Z,19.85
2023-05-01T13:55:26.127Z,19.64
2023-05-01T13:57:54.930Z,19.30
2023-05-01T14:00:24.378Z,18.87
2023-05-01T14:02:55.740Z,19.49
2023-05-01T14:05:29.785Z,19.43
2023-05-01T14:07:59.873Z,19.71
2023-05-01T14:10:31.460Z,19.80
2023-05-01T14:13:00.777Z,20.08
2023-05-01T14:15:30.026Z,19.57
2023-05-01T14:18:01.209Z,19.30
2023-05-01T14:20:30.319Z,19.26
2023-05-01T14:22:59.432Z,18.34
2023-05-01T14:25:31.461Z,18.36
2023-05-01T14:28:02.550Z,18.77
2023-05-01T14:30:38.400Z,18.23
2023-05-01T14:33:11.632Z,17.73
2023-05-01T14:35:50.079Z,18.29
2023-05-01T14:38:20.393Z,18.25
2023-05-01T14:40:51.293Z,18.62
2023-05-01T14:43:22.466Z,18.52
2023-05-01T14:45:51.339Z,19.07
2023-05-01T14:48:25.865Z,17.94
2023-05-01T14:50:55.554Z,18.00
2023-05-01T14:53:24.801Z,17.32
2023-05-01T14:55:55.640Z,17.72
2023-05-01T14:58:24.798Z,18.32
2023-05-01T15:00:54.007Z,18.14
2023-05-01T15:03:22.834Z,16.46
2023-05-01T15:05:52.377Z,16.50
2023-05-01T15:08:21.392Z,17.06
2023-05-01T15:10:50.133Z,16.64
2023-05-01T15:13:21.791Z,17.04
2023-05-01T15:15:51.246Z,17.66
2023-05-01T15:18:20.789Z,18.18
2023-05-01T15:20:49.342Z,18.09
2023-05-01T15:23:19.352Z,17.61
2023-05-01T15:25:50.806Z,17.75
2023-05-01T15:28:21.737Z,18.37
2023-05-01T15:30:50.164Z,18.81
2023-05-01T15:33:19.490Z,18.39
2023-05-01T15:35:49.016Z,18.25
2023-05-01T15:38:17.980Z,18.90
2023-05-01T15:40:50.246Z,19.01
2023-05-01T15:43:21.220Z,18.98
2023-05-01T15:45:50.153Z,19.29
2023-05-01T15:48:18.966Z,19.45
2023-05-01T15:50:49.322Z,19.46
2023-05-01T15:53:18.224Z,19.29
2023-05-01T15:55:46.607Z,19.15
2023-05-01T15:58:19.273Z,19.29
2023-05-01T16:00:50.684Z,19.38
2023-05-01T16:06:08.236Z,19.10
2023-05-01T16:08:40.219Z,19.28
2023-05-01T16:11:14.589Z,19.45
2023-05-01T16:13:45.466Z,19.49
2023-05-01T16:16:24.553Z,19.46
2023-05-01T16:18:58.859Z,19.53
2023-05-01T16:21:29.682Z,19.61
2023-05-01T16:24:08.737Z,19.69
2023-05-01T16:26:37.196Z,19.80
2023-05-01T16:29:09.804Z,19.93
2023-05-01T16:31:45.259Z,19.96
2023-05-01T16:34:14.811Z,20.02
2023-05-01T16:36:44.684Z,20.07
2023-05-01T16:39:16.387Z,20.04
2023-05-01T16:41:49.350Z,19.95
2023-05-01T16:44:19.867Z,19.97
2023-05-01T16:46:55.161Z,20.10
2023-05-01T16:49:27.808Z,19.73
2023-05-01T16:51:57.531Z,19.86
2023-05-01T16:54:32.003Z,19.59
2023-05-01T16:57:01.651Z,19.81
2023-05-01T16:59:31.434Z,19.64
2023-05-01T17:02:02.135Z,19.60
2023-05-01T17:04:33.601Z,19.30
2023-05-01T17:07:02.177Z,19.35
2023-05-01T17:09:34.311Z,19.52
2023-05-01T17:12:04.017Z,19.28
2023-05-01T17:14:32.943Z,19.10
2023-05-01T17:17:02.734Z,19.19
2023-05-01T17:19:32.508Z,19.20
2023-05-01T17:22:01.157Z,19.43
2023-05-01T17:24:29.672Z,19.62
2023-05-01T17:26:58.545Z,19.69
2023-05-01T17:29:29.021Z,19.70
2023-05-01T17:31:57.762Z,19.73
2023-05-01T17:34:27.811Z,19.65
2023-05-01T17:36:57.924Z,19.60
2023-05-01T17:39:28.309Z,19.54
2023-05-01T17:41:56.999Z,19.49
2023-05-01T17:44:26.115Z,19.54
2023-05-01T17:46:54.784Z,19.58
2023-05-01T17:49:24.152Z,19.64
2023-05-01T17:51:54.139Z,19.64
2023-05-01T17:54:23.019Z,19.63
2023-05-01T17:56:51.661Z,19.64
2023-05-01T17:59:20.317Z,19.61
2023-05-01T18:01:49.525Z,19.58
2023-05-01T18:04:18.810Z,19.56
2023-05-01T18:06:47.850Z,19.50
2023-05-01T18:09:19.706Z,19.44
2023-05-01T18:11:48.695Z,19.27
2023-05-01T18:14:17.596Z,18.95
2023-05-01T18:16:46.701Z,19.08
2023-05-01T18:19:15.564Z,19.17
2023-05-01T18:21:44.040Z,18.48
2023-05-01T18:24:13.238Z,18.74
2023-05-01T18:26:43.503Z,18.95
2023-05-01T18:29:12.779Z,19.04
2023-05-01T18:31:41.495Z,19.05
2023-05-01T18:34:12.379Z,18.80
2023-05-01T18:36:41.068Z,18.90
2023-05-01T18:39:09.953Z,18.76
2023-05-01T18:41:39.503Z,18.80
2023-05-01T18:44:10.265Z,18.84
2023-05-01T18:46:40.116Z,18.90
2023-05-01T18:49:08.828Z,18.90
2023-05-01T18:51:38.105Z,18.87
2023-05-01T18:54:07.933Z,18.87
2023-05-01T18:56:36.956Z,18.80
2023-05-01T18:59:09.071Z,18.77
2023-05-01T19:01:38.839Z,18.76
2023-05-01T19:04:07.480Z,18.71
2023-05-01T19:06:36.005Z,18.69
2023-05-01T19:09:04.828Z,18.78
2023-05-01T19:11:35.041Z,18.82
2023-05-01T19:14:04.005Z,18.89
2023-05-01T19:16:34.452Z,18.98
2023-05-01T19:19:03.509Z,18.95
2023-05-01T19:21:32.804Z,18.96
2023-05-01T19:24:01.371Z,18.95
2023-05-01T19:26:30.280Z,18.97
2023-05-01T19:29:00.054Z,18.96
2023-05-01T19:31:29.202Z,18.97
2023-05-01T19:34:00.243Z,19.02
2023-05-01T19:36:29.220Z,19.00
2023-05-01T19:38:58.055Z,19.04
2023-05-01T19:41:27.145Z,19.01
2023-05-01T19:43:56.726Z,19.01
2023-05-01T19:46:25.682Z,19.00
2023-05-01T19:48:55.635Z,18.92
2023-05-01T19:51:26.823Z,18.87
2023-05-01T19:53:57.206Z,18.78
2023-05-01T19:56:26.045Z,18.69
2023-05-01T19:58:55.751Z,18.59
2023-05-01T20:01:26.698Z,18.61
2023-05-01T20:03:56.061Z,18.52
2023-05-01T20:06:26.482Z,18.46
2023-05-01T20:08:55.603Z,18.46
2023-05-01T20:11:25.436Z,18.44
2023-05-01T20:13:54.323Z,18.37
2023-05-01T20:16:23.801Z,18.42
2023-05-01T20:18:52.790Z,18.42
2023-05-01T20:21:21.383Z,18.41
2023-05-01T20:23:51.865Z,18.45
2023-05-01T20:26:21.262Z,18.41
2023-05-01T20:28:51.391Z,18.36
2023-05-01T20:31:19.813Z,18.37
2023-05-01T20:33:48.439Z,18.38
2023-05-01T20:36:17.570Z,18.35
2023-05-01T20:38:47.694Z,18.33
2023-05-01T20:41:17.757Z,18.30
2023-05-01T20:43:48.457Z,18.37
2023-05-01T20:46:17.598Z,18.11
2023-05-01T20:48:47.532Z,18.26
2023-05-01T20:51:17.373Z,18.25
2023-05-01T20:53:47.348Z,18.24
2023-05-01T20:56:17.523Z,17.98
2023-05-01T20:58:46.422Z,18.13
2023-05-01T21:01:15.216Z,18.24
2023-05-01T21:03:46.723Z,17.37
2023-05-01T21:06:16.697Z,17.55
2023-05-01T21:08:47.939Z,17.85
2023-05-01T21:11:18.200Z,18.00
2023-05-01T21:13:47.187Z,18.01
2023-05-01T21:16:18.001Z,18.08
2023-05-01T21:18:47.202Z,17.77
2023-05-01T21:21:19.029Z,17.88
2023-05-01T21:23:49.214Z,18.04
2023-05-01T21:26:22.106Z,17.94
2023-05-01T21:28:51.538Z,17.99
2023-05-01T21:31:20.504Z,17.98
2023-05-01T21:33:51.189Z,17.94
2023-05-01T21:36:20.334Z,17.72
2023-05-01T21:38:49.122Z,17.78
2023-05-01T21:41:19.311Z,17.93
2023-05-01T21:43:48.360Z,18.00
2023-05-01T21:46:19.801Z,17.97
2023-05-01T21:48:52.421Z,17.89
2023-05-01T21:51:27.526Z,17.85
2023-05-01T21:53:56.542Z,17.87
2023-05-01T21:56:26.774Z,17.84
2023-05-01T21:59:02.287Z,17.80
2023-05-01T22:01:31.326Z,17.76
2023-05-01T22:04:00.542Z,17.74
2023-05-01T22:06:30.091Z,17.77
2023-05-01T22:09:00.912Z,17.74
2023-05-01T22:11:32.372Z,17.74
2023-05-01T22:14:02.457Z,17.74
2023-05-01T22:16:30.887Z,17.68
2023-05-01T22:19:00.561Z,17.64
2023-05-01T22:21:31.204Z,17.68
2023-05-01T22:23:59.709Z,17.67
2023-05-01T22:26:29.834Z,17.60
2023-05-01T22:28:59.924Z,17.57
2023-05-01T22:31:28.652Z,17.59
2023-05-01T22:33:57.076Z,17.60
2023-05-01T22:36:26.234Z,17.58
2023-05-01T22:38:55.797Z,17.63
2023-05-01T22:41:24.654Z,17.59
2023-05-01T22:43:58.978Z,17.54
2023-05-01T22:46:29.369Z,17.58
2023-05-01T22:49:01.642Z,17.57
2023-05-01T22:51:31.316Z,17.54
2023-05-01T22:54:00.923Z,17.50
2023-05-01T22:56:30.614Z,16.81
2023-05-01T22:58:59.371Z,17.28
2023-05-01T23:01:29.572Z,17.42
2023-05-01T23:03:58.394Z,17.41
2023-05-01T23:06:28.322Z,17.43
2023-05-01T23:08:57.525Z,17.46
2023-05-01T23:11:31.986Z,17.36
2023-05-01T23:14:02.274Z,17.37
2023-05-01T23:16:41.882Z,17.36
2023-05-01T23:19:24.168Z,17.30
2023-05-01T23:22:05.789Z,17.29
2023-05-01T23:24:45.090Z,17.26
2023-05-01T23:27:17.579Z,17.23
2023-05-01T23:29:58.705Z,17.19
2023-05-01T23:32:32.451Z,17.24
2023-05-01T23:35:06.498Z,17.26
2023-05-01T23:37:35.132Z,17.25
2023-05-01T23:40:04.694Z,17.23
2023-05-01T23:42:34.118Z,17.24
2023-05-01T23:45:03.267Z,17.17
2023-05-01T23:47:33.366Z,17.17
2023-05-01T23:50:03.063Z,17.14
2023-05-01T23:52:32.419Z,17.09
2023-05-01T23:55:02.607Z,17.14
2023-05-01T23:57:31.584Z,17.11
